createdAt,value
2022-11-23T00:00:38.479Z,8.40
2022-11-23T00:03:16.164Z,8.50
2022-11-23T00:05:48.773Z,8.50
2022-11-23T00:08:21.593Z,8.50
2022-11-23T00:10:58.391Z,8.50
2022-11-23T00:13:30.997Z,8.50
2022-11-23T00:16:09.500Z,8.60
2022-11-23T00:18:42.216Z,8.50
2022-11-23T00:21:17.050Z,8.50
2022-11-23T00:23:49.888Z,8.50
2022-11-23T00:26:22.735Z,8.50
2022-11-23T00:28:55.678Z,8.50
2022-11-23T00:31:32.545Z,8.50
2022-11-23T00:34:05.175Z,8.50
2022-11-23T00:36:37.775Z,8.50
2022-11-23T00:39:10.394Z,8.50
2022-11-23T00:41:42.809Z,8.40
2022-11-23T00:44:15.395Z,8.40
2022-11-23T00:46:47.905Z,8.40
2022-11-23T00:49:20.463Z,8.30
2022-11-23T00:51:52.979Z,8.20
2022-11-23T00:54:25.553Z,8.10
2022-11-23T00:56:58.115Z,8.00
2022-11-23T00:59:31.908Z,8.00
2022-11-23T01:02:06.041Z,7.90
2022-11-23T01:04:40.229Z,7.80
2022-11-23T01:07:12.902Z,7.80
2022-11-23T01:09:45.792Z,7.70
2022-11-23T01:12:18.695Z,7.60
2022-11-23T01:14:54.570Z,7.60
2022-11-23T01:17:27.745Z,7.50
2022-11-23T01:20:00.428Z,7.50
2022-11-23T01:22:32.959Z,7.50
2022-11-23T01:25:06.213Z,7.50
2022-11-23T01:27:38.738Z,7.40
2022-11-23T01:30:12.303Z,7.30
2022-11-23T01:32:44.874Z,7.30
2022-11-23T01:35:17.834Z,7.20
2022-11-23T01:37:50.773Z,7.20
2022-11-23T01:40:23.388Z,7.10
2022-11-23T01:42:57.993Z,7.10
2022-11-23T01:45:40.971Z,7.10
2022-11-23T01:48:20.159Z,7.00
2022-11-23T01:50:54.257Z,6.90
2022-11-23T01:53:29.057Z,6.90
2022-11-23T01:56:06.338Z,6.90
2022-11-23T01:58:42.744Z,6.90
2022-11-23T02:01:16.066Z,6.80
2022-11-23T02:03:49.424Z,6.70
2022-11-23T02:06:23.731Z,6.80
2022-11-23T02:08:56.596Z,6.70
2022-11-23T02:11:29.265Z,6.70
2022-11-23T02:14:02.142Z,6.60
2022-11-23T02:16:38.517Z,6.60
2022-11-23T02:19:26.143Z,6.60
2022-11-23T02:21:58.697Z,6.60
2022-11-23T02:24:37.722Z,6.50
2022-11-23T02:27:10.342Z,6.40
2022-11-23T02:29:43.180Z,6.40
2022-11-23T02:32:23.783Z,6.40
2022-11-23T02:35:01.136Z,6.30
2022-11-23T02:37:33.781Z,6.30
2022-11-23T02:40:20.484Z,6.30
2022-11-23T02:42:53.095Z,6.30
2022-11-23T02:45:34.880Z,6.20
2022-11-23T02:48:07.756Z,6.20
2022-11-23T02:50:43.220Z,6.20
2022-11-23T02:53:15.903Z,6.20
2022-11-23T02:55:48.498Z,6.20
2022-11-23T02:58:23.490Z,6.20
2022-11-23T03:00:56.947Z,6.10
2022-11-23T03:03:29.589Z,6.10
2022-11-23T03:06:02.175Z,6.00
2022-11-23T03:08:34.721Z,5.90
2022-11-23T03:11:07.233Z,5.90
2022-11-23T03:13:39.792Z,5.80
2022-11-23T03:16:14.042Z,5.70
2022-11-23T03:18:46.779Z,5.70
2022-11-23T03:21:19.681Z,5.70
2022-11-23T03:23:52.289Z,5.70
2022-11-23T03:26:26.763Z,5.70
2022-11-23T03:29:10.059Z,5.80
2022-11-23T03:31:45.109Z,5.60
2022-11-23T03:34:20.874Z,5.60
2022-11-23T03:36:54.511Z,5.60
2022-11-23T03:39:27.142Z,5.60
2022-11-23T03:42:19.517Z,5.60
2022-11-23T03:44:52.500Z,5.60
2022-11-23T03:47:25.129Z,5.70
2022-11-23T03:49:57.958Z,5.70
2022-11-23T03:52:30.514Z,5.70
2022-11-23T03:55:03.288Z,5.70
2022-11-23T03:57:35.803Z,5.70
2022-11-23T04:00:10.416Z,5.80
2022-11-23T04:02:45.964Z,5.80
2022-11-23T04:05:38.625Z,5.80
2022-11-23T04:08:27.101Z,5.70
2022-11-23T04:11:01.643Z,5.80
2022-11-23T04:13:44.834Z,5.80
2022-11-23T04:16:17.447Z,5.70
2022-11-23T04:18:50.852Z,5.70
2022-11-23T04:21:23.477Z,5.60
2022-11-23T04:23:56.621Z,5.60
2022-11-23T04:26:30.721Z,5.60
2022-11-23T04:29:03.552Z,5.60
2022-11-23T04:31:39.914Z,5.60
2022-11-23T04:34:17.760Z,5.50
2022-11-23T04:36:50.781Z,5.60
2022-11-23T04:39:26.480Z,5.50
2022-11-23T04:42:15.094Z,5.50
2022-11-23T04:44:53.743Z,5.50
2022-11-23T04:47:26.439Z,5.50
2022-11-23T04:50:01.435Z,5.50
2022-11-23T04:52:34.512Z,5.50
2022-11-23T04:55:10.917Z,5.60
2022-11-23T04:57:52.440Z,5.60
2022-11-23T05:00:25.068Z,5.70
2022-11-23T05:03:01.449Z,5.60
2022-11-23T05:05:39.349Z,5.50
2022-11-23T05:08:12.111Z,5.50
2022-11-23T05:11:00.629Z,5.40
2022-11-23T05:13:33.308Z,5.40
2022-11-23T05:16:07.551Z,5.40
2022-11-23T05:18:40.456Z,5.30
2022-11-23T05:21:14.320Z,5.30
2022-11-23T05:23:47.295Z,5.30
2022-11-23T05:26:20.432Z,5.30
2022-11-23T05:28:54.426Z,5.20
2022-11-23T05:31:27.248Z,5.20
2022-11-23T05:34:00.050Z,5.20
2022-11-23T05:36:42.967Z,5.20
2022-11-23T05:39:15.846Z,5.20
2022-11-23T05:41:50.070Z,5.20
2022-11-23T05:44:35.942Z,5.10
2022-11-23T05:47:10.356Z,5.00
2022-11-23T05:49:44.536Z,5.00
2022-11-23T05:52:19.482Z,5.10
2022-11-23T05:54:53.505Z,5.00
2022-11-23T05:57:26.603Z,5.00
2022-11-23T05:59:59.289Z,5.00
2022-11-23T06:02:46.006Z,5.00
2022-11-23T06:05:19.703Z,5.00
2022-11-23T06:07:56.069Z,4.90
2022-11-23T06:10:32.835Z,5.00
2022-11-23T06:13:05.884Z,5.00
2022-11-23T06:15:39.449Z,5.00
2022-11-23T06:18:12.140Z,5.00
2022-11-23T06:20:51.804Z,5.00
2022-11-23T06:23:25.208Z,5.00
2022-11-23T06:26:01.992Z,5.00
2022-11-23T06:28:37.506Z,5.00
2022-11-23T06:31:10.904Z,4.90
2022-11-23T06:33:43.563Z,4.80
2022-11-23T06:36:16.301Z,4.80
2022-11-23T06:38:53.691Z,4.80
2022-11-23T06:41:32.510Z,4.70
2022-11-23T06:44:07.684Z,4.70
2022-11-23T06:46:46.395Z,4.80
2022-11-23T06:49:20.671Z,4.90
2022-11-23T06:52:09.795Z,4.90
2022-11-23T06:54:42.580Z,4.90
2022-11-23T06:57:15.608Z,5.00
2022-11-23T06:59:48.621Z,5.00
2022-11-23T07:02:25.170Z,5.00
2022-11-23T07:05:00.488Z,5.10
2022-11-23T07:07:35.479Z,5.10
2022-11-23T07:10:19.795Z,5.20
2022-11-23T07:13:03.221Z,5.30
2022-11-23T07:15:37.302Z,5.40
2022-11-23T07:18:12.540Z,5.40
2022-11-23T07:20:51.615Z,5.50
2022-11-23T07:23:24.368Z,5.60
2022-11-23T07:25:57.101Z,5.60
2022-11-23T07:28:29.738Z,5.70
2022-11-23T07:31:02.645Z,5.70
2022-11-23T07:33:35.493Z,5.80
2022-11-23T07:36:08.717Z,5.90
2022-11-23T07:38:44.931Z,5.90
2022-11-23T07:41:19.659Z,6.00
2022-11-23T07:44:02.482Z,6.00
2022-11-23T07:46:35.106Z,6.00
2022-11-23T07:49:08.255Z,6.10
2022-11-23T07:51:40.826Z,6.10
2022-11-23T07:54:15.718Z,6.20
2022-11-23T07:56:48.991Z,6.20
2022-11-23T07:59:21.733Z,6.30
2022-11-23T08:01:58.365Z,6.30
2022-11-23T08:04:32.557Z,6.30
2022-11-23T08:07:05.279Z,6.40
2022-11-23T08:09:38.154Z,6.30
2022-11-23T08:12:10.710Z,6.40
2022-11-23T08:14:43.440Z,6.40
2022-11-23T08:17:15.975Z,6.50
2022-11-23T08:19:48.563Z,6.50
2022-11-23T08:22:21.126Z,6.60
2022-11-23T08:24:54.108Z,6.60
2022-11-23T08:27:26.769Z,6.70
2022-11-23T08:29:59.446Z,6.80
2022-11-23T08:32:32.245Z,6.80
2022-11-23T08:35:05.972Z,6.90
2022-11-23T08:37:38.737Z,7.00
2022-11-23T08:40:12.436Z,7.00
2022-11-23T08:42:45.211Z,7.20
2022-11-23T08:45:18.395Z,7.20
2022-11-23T08:47:51.359Z,7.30
2022-11-23T08:50:24.140Z,7.40
2022-11-23T08:52:59.972Z,7.40
2022-11-23T08:55:32.836Z,7.50
2022-11-23T08:58:10.391Z,7.60
2022-11-23T09:00:47.810Z,7.70
2022-11-23T09:03:20.442Z,7.80
2022-11-23T09:05:54.816Z,7.90
2022-11-23T09:08:29.094Z,8.00
2022-11-23T09:11:05.605Z,8.00
2022-11-23T09:13:39.128Z,8.10
2022-11-23T09:16:11.815Z,8.10
2022-11-23T09:18:44.583Z,8.10
2022-11-23T09:21:17.134Z,8.10
2022-11-23T09:23:49.612Z,8.20
2022-11-23T09:26:22.733Z,8.20
2022-11-23T09:28:55.574Z,8.30
2022-11-23T09:31:29.213Z,8.40
2022-11-23T09:34:01.796Z,8.40
2022-11-23T09:36:34.359Z,8.50
2022-11-23T09:39:06.956Z,8.50
2022-11-23T09:41:56.570Z,8.60
2022-11-23T09:45:00.299Z,8.70
2022-11-23T09:47:40.957Z,8.80
2022-11-23T09:50:34.825Z,8.90
2022-11-23T09:53:13.940Z,8.90
2022-11-23T09:55:49.695Z,9.00
2022-11-23T09:58:25.085Z,9.10
2022-11-23T10:01:02.379Z,9.10
2022-11-23T10:03:45.403Z,9.20
2022-11-23T10:06:26.145Z,9.20
2022-11-23T10:09:28.556Z,9.30
2022-11-23T10:12:13.463Z,9.30
2022-11-23T10:15:04.554Z,9.40
2022-11-23T10:17:38.390Z,9.50
2022-11-23T10:20:42.520Z,9.60
2022-11-23T10:23:26.399Z,9.60
2022-11-23T10:25:59.979Z,9.70
2022-11-23T10:28:32.971Z,9.80
2022-11-23T10:31:14.725Z,9.80
2022-11-23T10:34:09.160Z,9.90
2022-11-23T10:36:42.337Z,10.00
2022-11-23T10:39:26.602Z,10.00
2022-11-23T10:42:08.279Z,10.00
2022-11-23T10:44:47.291Z,10.00
2022-11-23T10:47:42.973Z,10.10
2022-11-23T10:50:37.835Z,10.10
2022-11-23T10:53:28.966Z,10.10
2022-11-23T10:56:04.592Z,10.20
2022-11-23T10:58:46.871Z,10.20
2022-11-23T11:01:24.795Z,10.30
2022-11-23T11:04:04.593Z,10.30
2022-11-23T11:06:37.761Z,10.40
2022-11-23T11:09:21.384Z,10.40
2022-11-23T11:11:55.614Z,10.50
2022-11-23T11:14:37.853Z,10.50
2022-11-23T11:17:28.314Z,10.50
2022-11-23T11:20:31.908Z,10.60
2022-11-23T11:23:17.208Z,10.60
2022-11-23T11:25:50.632Z,10.60
2022-11-23T11:28:41.691Z,10.60
2022-11-23T11:31:22.984Z,10.70
2022-11-23T11:34:07.477Z,10.70
2022-11-23T11:36:57.949Z,10.70
2022-11-23T11:39:41.575Z,10.90
2022-11-23T11:42:22.605Z,10.90
2022-11-23T11:44:57.310Z,10.90
2022-11-23T11:47:37.123Z,10.90
2022-11-23T11:50:31.485Z,10.90
2022-11-23T11:53:14.981Z,10.90
2022-11-23T11:55:57.556Z,11.00
2022-11-23T11:58:33.308Z,11.10
2022-11-23T12:01:30.024Z,11.10
2022-11-23T12:04:12.639Z,11.10
2022-11-23T12:06:55.424Z,11.10
2022-11-23T12:09:35.584Z,11.10
2022-11-23T12:12:18.042Z,11.10
2022-11-23T12:14:53.927Z,11.10
2022-11-23T12:17:43.887Z,11.10
2022-11-23T12:20:31.943Z,11.20
2022-11-23T12:23:26.216Z,11.20
2022-11-23T12:26:22.322Z,11.10
2022-11-23T12:29:19.513Z,11.20
2022-11-23T12:32:05.277Z,11.20
2022-11-23T12:35:03.136Z,11.20
2022-11-23T12:37:56.636Z,11.30
2022-11-23T12:40:41.347Z,11.30
2022-11-23T12:43:23.053Z,11.30
2022-11-23T12:45:59.273Z,11.40
2022-11-23T12:48:53.485Z,11.40
2022-11-23T12:51:49.950Z,11.40
2022-11-23T12:54:40.872Z,11.50
2022-11-23T12:57:15.288Z,11.50
2022-11-23T12:59:58.326Z,11.50
2022-11-23T13:03:02.747Z,11.50
2022-11-23T13:06:08.932Z,11.50
2022-11-23T13:09:08.509Z,11.50
2022-11-23T13:11:41.914Z,11.50
2022-11-23T13:14:30.651Z,11.60
2022-11-23T13:17:20.388Z,11.60
2022-11-23T13:20:09.268Z,11.50
2022-11-23T13:22:46.133Z,11.50
2022-11-23T13:25:24.477Z,11.50
2022-11-23T13:28:04.541Z,11.50
2022-11-23T13:33:38.838Z,11.40
2022-11-23T13:36:49.445Z,11.40
2022-11-23T13:39:45.544Z,11.40
2022-11-23T13:42:18.913Z,11.40
2022-11-23T13:45:14.397Z,11.40
2022-11-23T13:48:03.498Z,11.30
2022-11-23T13:50:52.664Z,11.40
2022-11-23T13:53:27.113Z,11.30
2022-11-23T13:56:19.658Z,11.30
2022-11-23T13:59:23.860Z,11.30
2022-11-23T14:02:08.388Z,11.30
2022-11-23T14:04:43.169Z,11.30
2022-11-23T14:07:33.901Z,11.20
2022-11-23T14:10:23.321Z,11.10
2022-11-23T14:13:09.989Z,11.00
2022-11-23T14:15:54.833Z,11.00
2022-11-23T14:18:29.120Z,11.00
2022-11-23T14:21:12.440Z,10.90
2022-11-23T14:23:50.099Z,10.90
2022-11-23T14:26:30.531Z,10.90
2022-11-23T14:29:32.183Z,10.80
2022-11-23T14:32:14.072Z,10.80
2022-11-23T14:35:13.614Z,10.70
2022-11-23T14:38:02.541Z,10.70
2022-11-23T14:41:04.553Z,10.60
2022-11-23T14:43:43.287Z,10.60
2022-11-23T14:46:20.880Z,10.50
2022-11-23T14:49:07.627Z,10.50
2022-11-23T14:51:45.364Z,10.50
2022-11-23T14:54:18.475Z,10.40
2022-11-23T14:56:56.728Z,10.40
2022-11-23T14:59:36.659Z,10.30
2022-11-23T15:02:26.640Z,10.30
2022-11-23T15:05:04.904Z,10.20
2022-11-23T15:07:52.046Z,10.20
2022-11-23T15:10:29.525Z,10.10
2022-11-23T15:13:02.303Z,10.00
2022-11-23T15:15:40.110Z,9.90
2022-11-23T15:18:16.483Z,9.90
2022-11-23T15:20:51.514Z,9.80
2022-11-23T15:23:30.290Z,9.70
2022-11-23T15:26:28.549Z,9.70
2022-11-23T15:29:05.802Z,9.50
2022-11-23T15:31:46.717Z,9.50
2022-11-23T15:37:47.991Z,9.30
2022-11-23T15:40:21.335Z,9.20
2022-11-23T15:42:54.384Z,9.10
2022-11-23T15:45:42.619Z,9.10
2022-11-23T15:48:17.683Z,9.00
2022-11-23T15:50:54.407Z,9.00
2022-11-23T15:53:30.184Z,8.90
2022-11-23T15:56:07.984Z,8.80
2022-11-23T15:58:46.421Z,8.80
2022-11-23T16:01:19.613Z,8.70
2022-11-23T16:03:56.062Z,8.70
2022-11-23T16:06:37.126Z,8.60
2022-11-23T16:09:57.185Z,8.50
2022-11-23T16:12:33.972Z,8.50
2022-11-23T16:15:38.072Z,8.40
2022-11-23T16:18:18.237Z,8.40
2022-11-23T16:21:00.992Z,8.30
2022-11-23T16:23:44.647Z,8.20
2022-11-23T16:26:20.197Z,8.20
2022-11-23T16:28:57.160Z,8.10
2022-11-23T16:31:39.739Z,8.10
2022-11-23T16:34:16.787Z,8.00
2022-11-23T16:36:51.476Z,8.00
2022-11-23T16:39:26.049Z,8.00
2022-11-23T16:41:58.589Z,7.90
2022-11-23T16:44:31.478Z,7.90
2022-11-23T16:47:27.518Z,7.90
2022-11-23T16:50:01.619Z,7.80
2022-11-23T16:52:34.743Z,7.70
2022-11-23T16:55:08.845Z,7.70
2022-11-23T16:57:44.860Z,7.60
2022-11-23T17:00:21.584Z,7.50
2022-11-23T17:02:54.665Z,7.50
2022-11-23T17:05:27.628Z,7.40
2022-11-23T17:08:01.948Z,7.30
2022-11-23T17:10:39.205Z,7.30
2022-11-23T17:13:22.007Z,7.20
2022-11-23T17:15:54.900Z,7.20
2022-11-23T17:18:30.474Z,7.20
2022-11-23T17:21:03.481Z,7.30
2022-11-23T17:23:40.376Z,7.30
2022-11-23T17:26:24.762Z,7.30
2022-11-23T17:28:58.152Z,7.20
2022-11-23T17:31:31.103Z,7.20
2022-11-23T17:34:04.856Z,7.20
2022-11-23T17:36:40.775Z,7.20
2022-11-23T17:39:24.673Z,7.10
2022-11-23T17:42:01.543Z,7.10
2022-11-23T17:44:39.105Z,7.00
2022-11-23T17:47:29.279Z,7.00
2022-11-23T17:50:03.691Z,7.00
2022-11-23T17:52:36.404Z,7.00
2022-11-23T17:55:11.154Z,7.00
2022-11-23T17:57:44.250Z,7.00
2022-11-23T18:00:19.708Z,7.00
2022-11-23T18:02:53.073Z,7.00
2022-11-23T18:05:27.557Z,7.00
2022-11-23T18:08:02.754Z,7.00
2022-11-23T18:10:35.343Z,7.00
2022-11-23T18:13:07.911Z,7.00
2022-11-23T18:15:41.363Z,6.90
2022-11-23T18:18:14.664Z,6.90
2022-11-23T18:20:47.346Z,6.90
2022-11-23T18:23:20.000Z,6.90
2022-11-23T18:26:05.056Z,6.80
2022-11-23T18:28:38.475Z,6.80
2022-11-23T18:31:11.209Z,6.80
2022-11-23T18:33:46.472Z,6.80
2022-11-23T18:36:19.296Z,6.80
2022-11-23T18:38:52.137Z,6.80
2022-11-23T18:41:24.874Z,6.80
2022-11-23T18:43:57.452Z,6.80
2022-11-23T18:46:30.255Z,6.80
2022-11-23T18:49:02.927Z,6.70
2022-11-23T18:51:35.897Z,6.70
2022-11-23T18:54:08.520Z,6.70
2022-11-23T18:56:41.312Z,6.70
2022-11-23T18:59:35.134Z,6.70
2022-11-23T19:02:10.015Z,6.70
2022-11-23T19:04:42.613Z,6.70
2022-11-23T19:07:15.860Z,6.70
2022-11-23T19:09:48.601Z,6.70
2022-11-23T19:12:21.247Z,6.80
2022-11-23T19:14:53.684Z,6.70
2022-11-23T19:17:26.517Z,6.70
2022-11-23T19:19:59.325Z,6.70
2022-11-23T19:22:34.146Z,6.70
2022-11-23T19:25:07.398Z,6.80
2022-11-23T19:27:40.606Z,7.00
2022-11-23T19:30:14.762Z,7.20
2022-11-23T19:32:47.544Z,7.40
2022-11-23T19:35:21.288Z,7.50
2022-11-23T19:37:55.273Z,7.60
2022-11-23T19:40:29.417Z,7.70
2022-11-23T19:43:02.075Z,7.80
2022-11-23T19:45:34.617Z,7.80
2022-11-23T19:48:08.119Z,7.80
2022-11-23T19:50:40.681Z,7.80
2022-11-23T19:53:15.753Z,7.70
2022-11-23T19:55:50.201Z,7.70
2022-11-23T19:58:23.144Z,7.60
2022-11-23T20:01:00.770Z,7.50
2022-11-23T20:03:37.931Z,7.50
2022-11-23T20:06:16.497Z,7.40
2022-11-23T20:08:59.469Z,7.30
2022-11-23T20:11:34.224Z,7.30
2022-11-23T20:14:08.856Z,7.20
2022-11-23T20:16:41.856Z,7.20
2022-11-23T20:19:14.521Z,7.10
2022-11-23T20:21:47.142Z,7.10
2022-11-23T20:24:19.743Z,7.10
2022-11-23T20:26:52.671Z,7.10
2022-11-23T20:29:26.241Z,7.00
2022-11-23T20:31:58.800Z,7.00
2022-11-23T20:34:31.417Z,7.00
2022-11-23T20:37:05.942Z,6.90
2022-11-23T20:39:38.681Z,6.90
2022-11-23T20:42:11.158Z,6.90
2022-11-23T20:44:43.902Z,6.90
2022-11-23T20:47:17.067Z,7.00
2022-11-23T20:49:49.805Z,6.90
2022-11-23T20:52:22.605Z,6.90
2022-11-23T20:54:55.467Z,6.90
2022-11-23T20:57:28.849Z,6.90
2022-11-23T21:00:01.874Z,6.80
2022-11-23T21:02:35.326Z,6.80
2022-11-23T21:05:09.124Z,6.80
2022-11-23T21:07:41.826Z,6.80
2022-11-23T21:10:31.769Z,6.80
2022-11-23T21:13:19.806Z,6.80
2022-11-23T21:15:52.404Z,6.70
2022-11-23T21:18:24.895Z,6.80
2022-11-23T21:20:59.176Z,6.70
2022-11-23T21:23:34.414Z,6.70
2022-11-23T21:26:07.563Z,6.70
2022-11-23T21:28:40.354Z,6.60
2022-11-23T21:31:15.528Z,6.50
2022-11-23T21:33:53.809Z,6.50
2022-11-23T21:36:28.279Z,6.50
2022-11-23T21:39:03.919Z,6.50
2022-11-23T21:41:37.243Z,6.50
2022-11-23T21:44:10.834Z,6.50
2022-11-23T21:46:43.751Z,6.50
2022-11-23T21:49:17.900Z,6.50
2022-11-23T21:51:50.768Z,6.50
2022-11-23T21:54:23.406Z,6.50
2022-11-23T21:56:56.077Z,6.50
2022-11-23T21:59:28.752Z,6.50
2022-11-23T22:02:01.439Z,6.50
2022-11-23T22:04:34.414Z,6.40
2022-11-23T22:07:07.555Z,6.40
2022-11-23T22:09:40.141Z,6.40
2022-11-23T22:12:12.684Z,6.40
2022-11-23T22:14:45.718Z,6.40
2022-11-23T22:17:18.430Z,6.30
2022-11-23T22:19:51.068Z,6.30
2022-11-23T22:22:23.796Z,6.30
2022-11-23T22:24:56.566Z,6.30
2022-11-23T22:27:29.158Z,6.30
2022-11-23T22:30:01.756Z,6.30
2022-11-23T22:32:34.329Z,6.30
2022-11-23T22:35:07.551Z,6.40
2022-11-23T22:37:40.246Z,6.40
2022-11-23T22:40:13.185Z,6.40
2022-11-23T22:42:45.762Z,6.40
2022-11-23T22:45:18.240Z,7.20
2022-11-23T22:47:50.786Z,6.40
2022-11-23T22:50:23.218Z,6.50
2022-11-23T22:52:55.784Z,6.40
2022-11-23T22:55:28.331Z,6.50
2022-11-23T22:58:01.307Z,6.50
2022-11-23T23:00:33.791Z,6.40
2022-11-23T23:03:07.004Z,6.40
2022-11-23T23:05:39.720Z,6.40
2022-11-23T23:08:14.510Z,6.40
2022-11-23T23:10:47.107Z,6.40
2022-11-23T23:13:20.642Z,6.30
2022-11-23T23:16:02.019Z,6.30
2022-11-23T23:18:35.091Z,6.30
2022-11-23T23:21:11.873Z,6.30
2022-11-23T23:23:46.893Z,6.30
2022-11-23T23:26:21.835Z,6.30
2022-11-23T23:28:56.345Z,6.30
2022-11-23T23:31:30.108Z,6.40
2022-11-23T23:34:02.922Z,6.40
2022-11-23T23:36:36.836Z,6.50
2022-11-23T23:39:10.364Z,6.50
2022-11-23T23:41:42.902Z,6.60
2022-11-23T23:44:15.707Z,6.80
2022-11-23T23:46:48.272Z,7.00
2022-11-23T23:49:20.913Z,7.10
2022-11-23T23:51:53.669Z,7.30
2022-11-23T23:54:26.767Z,7.30
2022-11-23T23:56:59.286Z,7.40
2022-11-23T23:59:31.968Z,7.50
